Time;durP1;ratioP1;P1;durP2;ratioP2;P2;SDS_P1;SDS_P2;PMS_P1;PMS_P2;Temp;Humidity;BMP_temperature;BMP_pressure;BME280_temperature;BME280_humidity;BME280_pressure;Samples;Min_cycle;Max_cycle;Signal;HPM_P1;HPM_P2
2023/04/05 00:00:37;;;;;;;7.78;3.20;;;10.60;77.20;;;;;;5053262;28;20060;-81
2023/04/05 00:03:41;;;;;;;14.95;3.28;;;10.50;77.30;;;;;;5054928;28;20045;-81
2023/04/05 00:06:51;;;;;;;6.78;2.92;;;10.40;77.20;;;;;;5055642;28;20040;-80
2023/04/05 00:09:55;;;;;;;12.45;2.90;;;10.40;77.50;;;;;;5055564;28;20595;-78
2023/04/05 00:12:59;;;;;;;7.72;3.30;;;11.10;78.20;;;;;;5055526;28;20048;-79
2023/04/05 00:16:04;;;;;;;6.20;2.95;;;9.50;77.40;;;;;;5056188;28;20036;-81
2023/04/05 00:19:11;;;;;;;10.73;3.45;;;10.30;77.70;;;;;;5056114;28;20524;-80
2023/04/05 00:22:19;;;;;;;8.55;3.22;;;;;;;;;;5055293;28;20056;-79
2023/04/05 00:25:22;;;;;;;7.40;3.50;;;10.40;77.60;;;;;;5054445;28;20041;-79
2023/04/05 00:28:26;;;;;;;5.90;2.90;;;10.30;78.10;;;;;;5054562;28;20043;-79
2023/04/05 00:31:30;;;;;;;9.02;3.33;;;10.20;78.20;;;;;;5055216;28;20059;-78
2023/04/05 00:34:34;;;;;;;6.28;2.75;;;11.40;78.70;;;;;;5053795;28;20040;-78
2023/04/05 00:37:38;;;;;;;11.52;3.30;;;6.30;75.70;;;;;;5054878;28;20048;-80
2023/04/05 00:40:42;;;;;;;8.55;3.78;;;10.50;78.00;;;;;;5056190;28;20068;-80
2023/04/05 00:43:46;;;;;;;9.52;3.10;;;10.40;77.70;;;;;;5054951;28;20048;-79
2023/04/05 00:46:50;;;;;;;9.52;3.08;;;13.10;78.70;;;;;;5055356;28;20047;-79
2023/04/05 00:49:54;;;;;;;6.95;3.00;;;11.00;77.40;;;;;;5055716;28;20104;-80
2023/04/05 00:52:58;;;;;;;8.63;3.05;;;10.70;77.20;;;;;;5054393;28;20052;-79
2023/04/05 00:56:05;;;;;;;4.82;2.88;;;10.90;77.00;;;;;;5055711;28;20040;-79
2023/04/05 00:59:10;;;;;;;7.90;3.30;;;;;;;;;;5054699;28;20051;-79
2023/04/05 01:02:27;;;;;;;6.65;2.95;;;10.50;76.40;;;;;;5043305;28;20036;-80
2023/04/05 01:05:41;;;;;;;5.70;2.83;;;9.80;75.80;;;;;;5054326;28;20424;-79
2023/04/05 01:08:55;;;;;;;4.85;2.72;;;9.60;75.90;;;;;;5055267;28;20037;-79
2023/04/05 01:12:03;;;;;;;6.43;2.60;;;10.20;76.60;;;;;;5055168;28;20052;-80
2023/04/05 01:15:08;;;;;;;5.72;2.55;;;10.80;76.80;;;;;;5052765;28;20059;-81
2023/04/05 01:18:13;;;;;;;8.38;2.83;;;10.30;76.60;;;;;;5054767;28;20048;-80
2023/04/05 01:21:38;;;;;;;5.47;2.90;;;10.20;76.60;;;;;;5053706;28;20047;-79
2023/04/05 01:24:56;;;;;;;7.68;2.85;;;10.50;77.10;;;;;;5053599;28;20056;-78
2023/04/05 01:28:27;;;;;;;5.25;2.90;;;9.80;76.70;;;;;;5053895;28;20047;-78
2023/04/05 01:32:05;;;;;;;8.45;3.47;;;11.10;77.80;;;;;;5054768;28;20045;-79
2023/04/05 01:35:40;;;;;;;7.30;2.67;;;11.10;77.20;;;;;;5053114;28;20514;-81
2023/04/05 01:38:49;;;;;;;7.63;2.40;;;10.70;76.90;;;;;;5054393;28;20424;-79
2023/04/05 01:41:58;;;;;;;5.55;3.10;;;9.50;76.20;;;;;;5053753;28;20393;-78
2023/04/05 01:45:03;;;;;;;7.18;2.95;;;8.90;75.70;;;;;;5053173;28;20397;-79
2023/04/05 01:48:09;;;;;;;7.97;3.00;;;10.10;76.40;;;;;;5054172;28;20394;-80
2023/04/05 01:51:13;;;;;;;5.57;2.45;;;10.80;76.90;;;;;;5054510;28;20059;-79
2023/04/05 01:54:18;;;;;;;6.82;2.92;;;10.20;76.90;;;;;;5052643;28;20044;-79
2023/04/05 01:57:22;;;;;;;15.55;3.60;;;;;;;;;;5052875;28;20044;-79
2023/04/05 02:00:26;;;;;;;11.23;3.70;;;10.80;78.40;;;;;;5052322;28;20049;-79
2023/04/05 02:03:30;;;;;;;6.93;3.38;;;10.50;78.50;;;;;;5053216;28;20063;-79
2023/04/05 02:06:35;;;;;;;7.28;2.90;;;10.30;78.50;;;;;;5051963;28;20048;-79
2023/04/05 02:09:40;;;;;;;7.47;3.38;;;9.20;78.30;;;;;;5040642;28;20051;-78
2023/04/05 02:12:44;;;;;;;5.75;2.75;;;;;;;;;;5040118;28;20048;-79
2023/04/05 02:15:50;;;;;;;6.32;2.85;;;10.10;79.10;;;;;;5052637;28;20037;-78
2023/04/05 02:18:56;;;;;;;7.80;2.30;;;9.80;79.20;;;;;;5053070;28;20063;-79
2023/04/05 02:22:00;;;;;;;7.53;2.78;;;;;;;;;;5053064;28;20041;-79
2023/04/05 02:25:09;;;;;;;8.80;2.90;;;8.50;78.30;;;;;;5054092;28;20049;-80
2023/04/05 02:28:15;;;;;;;14.25;3.08;;;;;;;;;;5052049;28;20037;-79
2023/04/05 02:31:22;;;;;;;10.45;2.97;;;10.00;79.60;;;;;;5055006;28;20052;-81
2023/04/05 02:34:26;;;;;;;6.18;2.90;;;10.10;79.60;;;;;;5055007;28;20047;-80
2023/04/05 02:37:30;;;;;;;6.53;3.10;;;;;;;;;;5055313;28;20389;-80
2023/04/05 02:40:34;;;;;;;7.03;3.45;;;9.80;79.40;;;;;;5053706;28;20037;-81
2023/04/05 02:43:38;;;;;;;8.10;3.33;;;10.20;79.60;;;;;;5053144;28;20037;-81
2023/04/05 02:46:42;;;;;;;5.80;3.17;;;10.20;80.00;;;;;;5052657;28;20511;-79
2023/04/05 02:49:47;;;;;;;6.88;3.10;;;;;;;;;;5054450;28;20052;-80
2023/04/05 02:52:52;;;;;;;10.35;3.13;;;9.70;79.60;;;;;;5042086;28;20049;-79
2023/04/05 02:55:58;;;;;;;8.15;2.70;;;10.50;80.00;;;;;;5054550;28;20412;-79
2023/04/05 02:59:02;;;;;;;5.78;3.03;;;10.40;79.90;;;;;;5044059;28;20052;-78
2023/04/05 03:02:07;;;;;;;5.88;3.03;;;10.00;79.20;;;;;;5054688;28;20508;-79
2023/04/05 03:05:12;;;;;;;4.82;2.92;;;10.00;79.10;;;;;;5052470;28;20039;-79
2023/04/05 03:08:18;;;;;;;8.23;3.22;;;9.90;79.90;;;;;;5053760;28;20072;-80
2023/04/05 03:11:27;;;;;;;7.30;3.00;;;11.20;80.70;;;;;;5053437;28;20064;-78
2023/04/05 03:14:37;;;;;;;7.85;3.30;;;9.70;79.70;;;;;;5050810;28;20059;-79
2023/04/05 03:17:43;;;;;;;7.68;3.28;;;9.60;79.70;;;;;;5051925;28;20049;-79
2023/04/05 03:20:48;;;;;;;9.68;3.15;;;9.80;79.80;;;;;;5053104;28;20370;-79
2023/04/05 03:23:56;;;;;;;9.48;3.17;;;9.70;79.60;;;;;;5052873;28;20416;-80
2023/04/05 03:27:06;;;;;;;5.45;3.00;;;9.70;79.50;;;;;;5053263;28;20385;-80
2023/04/05 03:30:17;;;;;;;9.15;3.13;;;9.80;79.40;;;;;;5052871;28;20049;-78
2023/04/05 03:33:33;;;;;;;5.55;2.88;;;9.70;79.40;;;;;;5052224;28;20053;-76
2023/04/05 03:36:44;;;;;;;5.75;2.80;;;10.50;79.80;;;;;;5051033;28;20040;-80
2023/04/05 03:40:09;;;;;;;7.40;3.00;;;11.40;80.30;;;;;;5058692;28;20043;-79
2023/04/05 03:43:13;;;;;;;10.48;3.40;;;11.20;80.10;;;;;;5058817;28;20048;-78
2023/04/05 03:46:17;;;;;;;8.35;3.10;;;;;;;;;;5058617;28;20056;-78
2023/04/05 03:49:21;;;;;;;9.00;2.78;;;9.80;79.20;;;;;;5057409;28;20485;-78
2023/04/05 03:52:25;;;;;;;8.38;3.00;;;9.80;79.20;;;;;;5058077;28;20515;-81
2023/04/05 03:55:30;;;;;;;6.65;2.65;;;9.40;79.00;;;;;;5057460;28;20052;-79
2023/04/05 03:58:40;;;;;;;5.50;2.58;;;;;;;;;;5058338;28;20057;-80
2023/04/05 04:01:45;;;;;;;8.50;2.60;;;9.80;79.60;;;;;;5058006;28;20033;-79
2023/04/05 04:04:49;;;;;;;5.35;2.30;;;8.60;79.10;;;;;;5059736;28;20555;-78
2023/04/05 04:07:53;;;;;;;9.23;2.50;;;10.70;80.70;;;;;;5057966;28;20416;-79
2023/04/05 04:10:58;;;;;;;6.47;2.42;;;;;;;;;;5059098;28;20047;-80
2023/04/05 04:14:06;;;;;;;5.35;2.85;;;9.00;79.40;;;;;;5057613;28;20037;-79
2023/04/05 04:17:34;;;;;;;8.70;2.75;;;10.10;80.00;;;;;;5063163;28;20044;-79
2023/04/05 04:21:11;;;;;;;5.28;2.80;;;11.20;80.30;;;;;;5058280;28;20044;-80
2023/04/05 04:24:45;;;;;;;7.03;2.67;;;10.20;79.90;;;;;;5056974;28;20051;-80
2023/04/05 04:28:09;;;;;;;5.32;2.80;;;10.30;79.80;;;;;;5063488;28;20040;-79
2023/04/05 04:31:33;;;;;;;8.30;2.60;;;9.50;79.70;;;;;;5057996;28;20400;-79
2023/04/05 04:35:17;;;;;;;8.20;3.22;;;11.00;80.80;;;;;;5056556;28;20045;-79
2023/04/05 04:38:58;;;;;;;5.47;2.50;;;;;;;;;;5056644;28;20051;-78
2023/04/05 04:42:02;;;;;;;10.68;3.28;;;9.60;80.30;;;;;;5058725;28;20040;-79
2023/04/05 04:45:26;;;;;;;12.13;2.70;;;;;;;;;;5059787;28;20048;-79
2023/04/05 04:48:42;;;;;;;17.08;3.05;;;;;;;;;;5058401;28;20044;-79
2023/04/05 04:51:50;;;;;;;15.70;2.97;;;;;;;;;;5056249;28;20056;-79
2023/04/05 04:54:58;;;;;;;8.10;2.75;;;;;;;;;;5055342;28;20389;-79
2023/04/05 04:58:08;;;;;;;14.90;3.20;;;10.40;81.20;;;;;;5059840;28;20041;-80
2023/04/05 05:01:12;;;;;;;14.43;3.13;;;9.70;80.30;;;;;;5058826;28;20195;-78
2023/04/05 05:04:16;;;;;;;12.30;3.47;;;9.90;80.00;;;;;;5055901;28;20048;-80
2023/04/05 05:07:22;;;;;;;11.82;3.28;;;9.40;79.70;;;;;;5055887;28;20044;-79
2023/04/05 05:10:26;;;;;;;12.07;2.85;;;;;;;;;;5056305;28;20043;-78
2023/04/05 05:13:35;;;;;;;9.52;2.63;;;9.90;80.00;;;;;;5056330;28;20056;-78
2023/04/05 05:16:40;;;;;;;21.58;3.13;;;10.70;80.30;;;;;;5057697;28;20048;-79
2023/04/05 05:19:44;;;;;;;10.38;2.60;;;8.70;79.20;;;;;;5057461;28;20056;-79
2023/04/05 05:22:48;;;;;;;9.15;2.95;;;10.10;79.90;;;;;;5055246;28;20040;-79
2023/04/05 05:25:59;;;;;;;7.50;3.22;;;8.60;78.80;;;;;;5053565;28;20052;-68
2023/04/05 05:29:03;;;;;;;5.95;2.88;;;9.10;78.40;;;;;;5053164;28;20357;-67
2023/04/05 05:32:14;;;;;;;10.40;3.00;;;10.10;78.70;;;;;;5051862;28;20052;-69
2023/04/05 05:35:17;;;;;;;6.82;2.70;;;10.90;78.60;;;;;;5052837;28;20051;-69
2023/04/05 05:38:22;;;;;;;6.45;2.58;;;10.30;77.80;;;;;;5052655;28;20044;-67
2023/04/05 05:41:26;;;;;;;9.18;2.50;;;10.80;76.90;;;;;;5052806;28;20064;-68
2023/04/05 05:44:30;;;;;;;6.53;2.60;;;11.40;76.10;;;;;;5052409;28;20043;-69
2023/04/05 05:47:35;;;;;;;6.65;2.10;;;12.20;76.10;;;;;;5052483;28;20044;-67
2023/04/05 05:50:39;;;;;;;14.27;2.97;;;11.00;75.30;;;;;;5052755;28;20075;-69
2023/04/05 05:53:43;;;;;;;9.18;3.22;;;10.90;75.90;;;;;;5052540;28;20052;-70
2023/04/05 05:56:47;;;;;;;12.75;3.25;;;11.20;76.70;;;;;;5052640;28;20048;-71
2023/04/05 05:59:51;;;;;;;6.82;2.90;;;;;;;;;;5052661;28;20044;-69
2023/04/05 06:02:57;;;;;;;5.88;2.80;;;;;;;;;;5052267;28;20398;-68
2023/04/05 06:06:04;;;;;;;8.48;3.20;;;;;;;;;;5052278;28;20040;-68
2023/04/05 06:09:09;;;;;;;15.75;3.50;;;13.20;72.60;;;;;;5051202;28;20489;-69
2023/04/05 06:12:14;;;;;;;16.85;3.70;;;;;;;;;;5051713;28;20063;-67
2023/04/05 06:15:18;;;;;;;14.05;2.97;;;13.10;71.50;;;;;;5051962;28;20507;-67
2023/04/05 06:18:22;;;;;;;6.43;3.03;;;13.20;71.90;;;;;;5052327;28;20047;-68
2023/04/05 06:21:26;;;;;;;6.05;3.10;;;13.60;71.40;;;;;;5052243;28;20052;-69
2023/04/05 06:24:30;;;;;;;9.77;3.03;;;13.90;72.10;;;;;;5051640;28;20120;-68
2023/04/05 06:27:35;;;;;;;8.32;3.30;;;13.90;70.10;;;;;;5052024;28;20048;-68
2023/04/05 06:30:39;;;;;;;14.18;3.33;;;13.50;70.80;;;;;;5052284;28;20055;-68
2023/04/05 06:33:43;;;;;;;9.07;3.67;;;13.40;71.00;;;;;;5051506;28;20044;-69
2023/04/05 06:36:47;;;;;;;13.27;3.92;;;13.20;71.10;;;;;;5051718;28;20036;-69
2023/04/05 06:39:51;;;;;;;9.32;3.05;;;13.10;71.80;;;;;;5051474;28;20056;-70
2023/04/05 06:42:55;;;;;;;5.82;2.95;;;12.90;71.10;;;;;;5051623;28;20043;-69
2023/04/05 06:46:10;;;;;;;10.20;2.80;;;;;;;;;;5050682;28;20044;-71
2023/04/05 06:49:14;;;;;;;9.20;2.90;;;;;;;;;;5051621;28;20528;-69
2023/04/05 06:52:18;;;;;;;7.78;2.78;;;;;;;;;;5051523;28;20045;-68
2023/04/05 06:55:22;;;;;;;7.95;3.03;;;;;;;;;;5051218;28;20033;-67
2023/04/05 06:58:27;;;;;;;11.93;3.42;;;;;;;;;;5050175;28;20033;-66
2023/04/05 07:01:31;;;;;;;12.82;3.20;;;14.00;72.40;;;;;;5051422;28;20044;-68
2023/04/05 07:04:36;;;;;;;10.35;2.95;;;;;;;;;;5051015;28;20036;-67
2023/04/05 07:07:43;;;;;;;5.40;3.03;;;12.80;71.80;;;;;;5050938;28;20584;-68
2023/04/05 07:10:47;;;;;;;10.27;3.67;;;;;;;;;;5050803;28;20036;-68
2023/04/05 07:13:52;;;;;;;10.75;3.28;;;;;;;;;;5050179;28;20048;-68
2023/04/05 07:16:56;;;;;;;11.15;3.10;;;;;;;;;;5038960;28;20638;-67
2023/04/05 07:20:01;;;;;;;12.82;3.38;;;;;;;;;;5050976;28;20048;-67
2023/04/05 07:23:05;;;;;;;10.55;2.90;;;12.80;71.50;;;;;;5050787;28;20048;-68
2023/04/05 07:26:09;;;;;;;11.25;2.70;;;;;;;;;;5038507;28;20048;-68
2023/04/05 07:29:13;;;;;;;6.80;3.17;;;;;;;;;;5051054;28;20040;-67
2023/04/05 07:32:17;;;;;;;6.93;3.28;;;12.60;72.30;;;;;;5050746;28;20045;-69
2023/04/05 07:35:21;;;;;;;14.30;3.05;;;12.50;72.50;;;;;;5038630;28;20115;-67
2023/04/05 07:38:27;;;;;;;13.75;3.53;;;13.00;72.30;;;;;;5050905;28;20392;-69
2023/04/05 07:41:34;;;;;;;12.13;4.15;;;12.60;72.30;;;;;;5050629;28;20063;-68
2023/04/05 07:44:38;;;;;;;18.83;3.92;;;;;;;;;;5051024;28;20048;-68
2023/04/05 07:47:42;;;;;;;9.27;3.05;;;12.50;72.20;;;;;;5051082;28;20393;-69
2023/04/05 07:50:47;;;;;;;5.93;2.78;;;12.50;71.90;;;;;;5051835;28;20047;-69
2023/04/05 07:53:52;;;;;;;9.93;3.00;;;;;;;;;;5050934;28;20520;-68
2023/04/05 07:56:57;;;;;;;8.25;3.20;;;12.40;72.40;;;;;;5050575;28;20041;-68
2023/04/05 08:00:01;;;;;;;6.85;3.20;;;12.40;72.50;;;;;;5050741;28;20056;-67
2023/04/05 08:03:05;;;;;;;6.07;3.65;;;12.70;73.30;;;;;;5050745;28;20504;-68
2023/04/05 08:06:14;;;;;;;10.70;3.25;;;12.40;72.50;;;;;;5050796;28;20527;-67
2023/04/05 08:09:18;;;;;;;8.52;2.97;;;12.60;72.60;;;;;;5050828;28;20056;-67
2023/04/05 08:12:22;;;;;;;11.57;3.22;;;;;;;;;;5050507;28;20048;-68
2023/04/05 08:15:26;;;;;;;10.93;3.67;;;12.80;72.30;;;;;;5049843;28;20048;-69
2023/04/05 08:18:30;;;;;;;11.65;4.18;;;12.70;73.30;;;;;;5050332;28;20040;-66
2023/04/05 08:21:34;;;;;;;10.05;3.63;;;13.10;72.50;;;;;;5050138;28;20048;-64
2023/04/05 08:24:38;;;;;;;8.63;3.88;;;11.90;72.00;;;;;;5048935;28;20122;-66
2023/04/05 08:27:42;;;;;;;10.13;3.95;;;12.90;72.20;;;;;;5054340;28;20472;-66
2023/04/05 08:30:46;;;;;;;7.72;3.88;;;12.70;72.80;;;;;;5053967;28;20048;-68
2023/04/05 08:33:51;;;;;;;17.52;4.40;;;12.00;72.00;;;;;;5052854;28;20055;-67
2023/04/05 08:36:59;;;;;;;7.53;3.58;;;12.90;71.90;;;;;;5053811;28;20051;-71
2023/04/05 08:40:04;;;;;;;12.35;4.00;;;12.90;72.00;;;;;;5054068;28;20520;-71
2023/04/05 08:43:20;;;;;;;8.07;4.60;;;12.80;72.60;;;;;;5053573;28;20044;-68
2023/04/05 08:46:25;;;;;;;19.90;6.75;;;12.90;73.20;;;;;;5053939;28;20048;-68
2023/04/05 08:49:28;;;;;;;8.73;4.20;;;12.90;72.70;;;;;;5053533;28;20040;-68
2023/04/05 08:52:36;;;;;;;21.13;5.25;;;12.90;72.90;;;;;;5053554;28;20503;-68
2023/04/05 08:55:40;;;;;;;8.68;4.15;;;11.80;71.80;;;;;;5053520;28;20500;-68
2023/04/05 08:58:59;;;;;;;21.48;8.48;;;13.00;72.70;;;;;;5052701;28;20052;-69
2023/04/05 09:02:09;;;;;;;10.65;4.70;;;12.90;72.40;;;;;;5053805;28;20048;-67
2023/04/05 09:05:15;;;;;;;8.93;4.28;;;12.90;72.30;;;;;;5052657;28;20036;-67
2023/04/05 09:08:22;;;;;;;17.23;5.20;;;;;;;;;;5052189;28;20527;-68
2023/04/05 09:11:26;;;;;;;12.23;5.10;;;13.00;71.80;;;;;;5053558;28;20040;-66
2023/04/05 09:14:33;;;;;;;9.50;4.30;;;12.90;71.90;;;;;;5052998;28;20060;-67
2023/04/05 09:17:40;;;;;;;7.25;3.47;;;12.80;71.50;;;;;;5052510;28;20092;-68
2023/04/05 09:20:44;;;;;;;8.23;4.00;;;13.80;72.40;;;;;;5053196;28;20044;-68
2023/04/05 09:23:53;;;;;;;18.08;4.78;;;12.90;72.20;;;;;;5052847;28;20036;-68
2023/04/05 09:27:05;;;;;;;16.33;5.22;;;13.20;72.30;;;;;;5052909;28;20511;-68
2023/04/05 09:30:21;;;;;;;8.82;3.92;;;13.20;71.40;;;;;;5053279;28;20052;-69
2023/04/05 09:33:25;;;;;;;12.15;4.32;;;12.90;71.70;;;;;;5052738;28;20056;-67
2023/04/05 09:36:32;;;;;;;7.55;4.05;;;13.00;72.00;;;;;;5052291;28;20040;-67
2023/04/05 09:39:36;;;;;;;12.63;3.90;;;14.60;72.90;;;;;;5052574;28;20104;-67
2023/04/05 09:42:46;;;;;;;9.50;4.15;;;13.00;72.00;;;;;;5052289;28;20040;-67
2023/04/05 09:45:50;;;;;;;12.90;4.50;;;13.00;72.00;;;;;;5052523;28;20048;-68
2023/04/05 09:48:55;;;;;;;17.20;4.70;;;13.00;72.10;;;;;;5052322;28;20500;-67
2023/04/05 09:51:59;;;;;;;12.25;4.18;;;13.00;71.80;;;;;;5051380;28;20044;-68
2023/04/05 09:55:06;;;;;;;8.60;4.07;;;13.10;71.90;;;;;;5051447;28;20060;-68
2023/04/05 09:58:18;;;;;;;8.95;4.38;;;13.10;72.30;;;;;;5052059;28;20040;-66
2023/04/05 10:01:31;;;;;;;13.00;4.32;;;12.40;71.00;;;;;;5052728;28;20052;-67
2023/04/05 10:04:42;;;;;;;9.35;4.70;;;12.90;71.70;;;;;;5052344;28;20052;-68
2023/04/05 10:07:46;;;;;;;9.02;3.80;;;13.30;71.10;;;;;;5052269;28;20519;-69
2023/04/05 10:10:53;;;;;;;13.05;3.90;;;13.00;72.00;;;;;;5051320;28;20043;-65
2023/04/05 10:14:00;;;;;;;15.68;4.00;;;13.60;71.90;;;;;;5052003;28;20076;-68
2023/04/05 10:17:07;;;;;;;6.22;4.32;;;13.00;71.10;;;;;;5051343;28;20040;-68
2023/04/05 10:20:15;;;;;;;8.10;3.92;;;13.00;71.70;;;;;;5052013;28;20065;-69
2023/04/05 10:23:31;;;;;;;7.25;4.00;;;13.00;71.80;;;;;;5052291;28;20139;-67
2023/04/05 10:26:44;;;;;;;11.32;4.03;;;13.00;71.70;;;;;;5052057;28;20076;-64
2023/04/05 10:30:04;;;;;;;9.88;4.60;;;13.00;71.70;;;;;;5052113;28;20055;-65
2023/04/05 10:33:21;;;;;;;8.18;4.40;;;12.70;71.40;;;;;;5051468;28;20064;-71
2023/04/05 10:36:55;;;;;;;8.60;4.05;;;12.90;72.30;;;;;;5051036;28;20044;-67
2023/04/05 10:40:02;;;;;;;9.23;3.83;;;12.90;72.60;;;;;;5051812;28;20064;-69
2023/04/05 10:43:19;;;;;;;6.70;3.88;;;12.90;72.40;;;;;;5051660;28;20385;-68
2023/04/05 10:46:24;;;;;;;17.75;4.20;;;12.90;72.20;;;;;;5051458;28;20048;-68
2023/04/05 10:49:38;;;;;;;10.80;4.45;;;13.00;72.40;;;;;;5050922;28;20043;-73
2023/04/05 10:52:43;;;;;;;11.55;4.65;;;12.90;72.80;;;;;;5051340;28;20504;-68
2023/04/05 10:55:48;;;;;;;12.57;4.07;;;12.90;72.50;;;;;;5050639;28;20500;-67
2023/04/05 10:58:54;;;;;;;8.43;4.10;;;12.90;72.80;;;;;;5051438;28;20044;-67
2023/04/05 11:01:59;;;;;;;10.77;4.30;;;12.90;72.70;;;;;;5051227;28;20039;-68
2023/04/05 11:05:04;;;;;;;15.57;4.20;;;12.20;72.30;;;;;;5050958;28;20047;-66
2023/04/05 11:08:10;;;;;;;18.13;5.75;;;12.80;72.80;;;;;;5050894;28;20051;-67
2023/04/05 11:11:17;;;;;;;13.20;4.78;;;12.60;73.40;;;;;;5051197;28;20092;-66
2023/04/05 11:14:22;;;;;;;8.20;3.97;;;12.70;76.30;;;;;;5038686;28;20052;-66
2023/04/05 11:17:27;;;;;;;13.15;4.63;;;11.70;76.10;;;;;;5051200;28;20451;-67
2023/04/05 11:20:41;;;;;;;11.52;4.22;;;12.00;76.50;;;;;;5050898;28;20664;-65
2023/04/05 11:24:05;;;;;;;17.17;4.97;;;11.90;78.40;;;;;;5050721;28;20048;-67
2023/04/05 11:27:10;;;;;;;6.32;4.00;;;;;;;;;;5050701;28;20071;-67
2023/04/05 11:30:46;;;;;;;15.43;4.45;;;11.60;80.80;;;;;;5050932;28;20040;-67
2023/04/05 11:33:50;;;;;;;12.90;5.18;;;;;;;;;;5049908;28;20060;-70
2023/04/05 11:36:54;;;;;;;10.68;5.00;;;12.70;80.80;;;;;;5050910;28;20586;-68
2023/04/05 11:40:43;;;;;;;8.30;4.55;;;11.50;81.30;;;;;;5050963;28;20052;-66
2023/04/05 11:43:50;;;;;;;8.13;5.40;;;;;;;;;;5050713;28;20040;-65
2023/04/05 11:46:54;;;;;;;11.23;4.82;;;;;;;;;;5050736;28;20037;-66
2023/04/05 11:49:59;;;;;;;9.60;5.03;;;11.90;78.80;;;;;;5051102;28;20052;-66
2023/04/05 11:53:14;;;;;;;11.18;4.63;;;11.60;80.30;;;;;;5050658;28;20052;-67
2023/04/05 11:56:20;;;;;;;8.93;4.50;;;;;;;;;;5050941;28;20535;-67
2023/04/05 11:59:31;;;;;;;6.45;3.70;;;11.60;79.20;;;;;;5052036;28;20041;-67
2023/04/05 12:02:35;;;;;;;;;;;11.50;78.90;;;;;;5055028;28;20052;-66
2023/04/05 12:05:52;;;;;;;10.98;4.72;;;11.70;77.90;;;;;;5054431;28;19912;-67
2023/04/05 12:08:57;;;;;;;8.77;4.90;;;;;;;;;;5054792;28;20511;-70
2023/04/05 12:12:02;;;;;;;15.23;5.32;;;12.00;75.90;;;;;;5054080;28;20037;-67
2023/04/05 12:15:08;;;;;;;7.15;4.47;;;12.40;75.20;;;;;;5054292;28;20052;-69
2023/04/05 12:18:13;;;;;;;12.13;4.13;;;12.40;74.40;;;;;;5054049;28;20056;-67
2023/04/05 12:21:17;;;;;;;6.50;3.88;;;12.50;74.10;;;;;;5054373;28;20056;-67
2023/04/05 12:24:22;;;;;;;5.25;3.67;;;12.60;73.70;;;;;;5054069;28;20075;-67
2023/04/05 12:27:26;;;;;;;5.07;3.67;;;12.50;74.60;;;;;;5054326;28;20393;-68
2023/04/05 12:30:35;;;;;;;6.93;4.03;;;12.20;73.90;;;;;;5054259;28;20044;-66
2023/04/05 12:33:42;;;;;;;8.07;3.58;;;12.50;73.70;;;;;;5053865;28;20064;-70
2023/04/05 12:36:47;;;;;;;6.97;3.78;;;;;;;;;;5053984;28;20040;-67
2023/04/05 12:39:53;;;;;;;5.93;3.15;;;12.60;73.50;;;;;;5054230;28;20036;-66
2023/04/05 12:43:06;;;;;;;7.28;3.45;;;12.70;73.80;;;;;;5053869;28;20405;-67
2023/04/05 12:46:15;;;;;;;9.07;3.78;;;12.70;74.00;;;;;;5053788;28;20416;-68
2023/04/05 12:49:19;;;;;;;6.55;3.28;;;12.70;72.80;;;;;;5053704;28;20780;-66
2023/04/05 12:52:26;;;;;;;9.38;3.80;;;12.60;73.80;;;;;;5053506;28;20044;-66
2023/04/05 12:55:31;;;;;;;5.32;3.13;;;12.80;72.90;;;;;;5053735;28;20040;-67
2023/04/05 12:58:36;;;;;;;4.90;3.15;;;12.70;72.90;;;;;;5052869;28;20381;-67
2023/04/05 13:01:40;;;;;;;12.43;4.15;;;;;;;;;;5052675;28;20048;-68
2023/04/05 13:04:44;;;;;;;12.70;4.28;;;;;;;;;;5053631;28;20044;-67
2023/04/05 13:07:49;;;;;;;7.00;3.40;;;12.60;73.10;;;;;;5053415;28;20365;-67
2023/04/05 13:10:54;;;;;;;6.28;3.33;;;12.60;73.40;;;;;;5052757;28;20039;-66
2023/04/05 13:13:58;;;;;;;6.93;3.05;;;;;;;;;;5053087;28;20401;-67
2023/04/05 13:17:03;;;;;;;6.13;3.40;;;;;;;;;;5053490;28;20033;-66
2023/04/05 13:20:07;;;;;;;7.38;3.80;;;12.30;73.50;;;;;;5053155;28;20033;-66
2023/04/05 13:23:12;;;;;;;6.97;3.80;;;;;;;;;;5052997;28;20040;-64
2023/04/05 13:26:16;;;;;;;10.73;4.13;;;11.40;74.00;;;;;;5041059;28;20049;-65
2023/04/05 13:29:20;;;;;;;11.02;3.90;;;;;;;;;;5052746;28;20035;-64
2023/04/05 13:32:25;;;;;;;7.93;3.78;;;;;;;;;;5052733;28;20044;-68
2023/04/05 13:35:29;;;;;;;8.77;4.35;;;9.80;78.00;;;;;;5051855;28;20045;-65
2023/04/05 13:38:33;;;;;;;8.30;3.95;;;;;;;;;;5053040;28;20497;-64
2023/04/05 13:41:37;;;;;;;6.68;3.60;;;9.70;76.70;;;;;;5053022;28;20040;-66
2023/04/05 13:44:42;;;;;;;7.90;3.78;;;;;;;;;;5052953;28;20052;-65
2023/04/05 13:47:46;;;;;;;6.72;4.00;;;;;;;;;;5052923;28;20041;-65
2023/04/05 13:50:50;;;;;;;8.60;5.35;;;;;;;;;;5052929;28;20029;-64
2023/04/05 13:53:54;;;;;;;7.68;4.50;;;11.00;76.90;;;;;;5052514;28;20040;-67
2023/04/05 13:56:58;;;;;;;8.02;3.33;;;11.50;76.80;;;;;;5052367;28;20044;-67
2023/04/05 14:00:03;;;;;;;9.27;3.97;;;11.00;78.50;;;;;;5051508;28;20040;-66
2023/04/05 14:03:16;;;;;;;5.95;3.25;;;11.00;77.40;;;;;;5052009;28;20052;-67
2023/04/05 14:06:20;;;;;;;4.30;2.67;;;;;;;;;;5051480;28;20123;-67
2023/04/05 14:09:24;;;;;;;7.07;3.28;;;;;;;;;;5052428;28;20041;-67
2023/04/05 14:12:30;;;;;;;11.50;3.00;;;11.30;76.70;;;;;;5051487;28;20037;-66
2023/04/05 14:15:34;;;;;;;10.07;3.78;;;11.30;76.60;;;;;;5052619;28;20048;-66
2023/04/05 14:18:38;;;;;;;6.05;3.88;;;11.20;77.10;;;;;;5052544;28;20040;-66
2023/04/05 14:21:43;;;;;;;9.57;3.42;;;;;;;;;;5052846;28;20048;-67
2023/04/05 14:24:47;;;;;;;7.13;3.78;;;;;;;;;;5051708;28;20041;-66
2023/04/05 14:27:51;;;;;;;8.20;3.45;;;;;;;;;;5052125;28;20029;-67
2023/04/05 14:30:57;;;;;;;8.68;3.90;;;11.30;76.10;;;;;;5051125;28;20033;-68
2023/04/05 14:34:01;;;;;;;6.28;3.15;;;11.60;76.60;;;;;;5051625;28;20056;-69
2023/04/05 14:37:06;;;;;;;9.73;4.18;;;;;;;;;;5052263;28;20500;-67
2023/04/05 14:40:11;;;;;;;7.63;3.90;;;;;;;;;;5051859;28;20041;-67
2023/04/05 14:43:15;;;;;;;5.28;3.55;;;;;;;;;;5052038;28;20037;-66
2023/04/05 14:46:19;;;;;;;7.78;3.08;;;11.20;77.30;;;;;;5051592;28;20493;-65
2023/04/05 14:49:24;;;;;;;5.07;3.20;;;;;;;;;;5051789;28;20044;-66
2023/04/05 14:52:28;;;;;;;10.05;3.42;;;9.90;76.10;;;;;;5051670;28;20041;-67
2023/04/05 14:55:32;;;;;;;11.93;3.55;;;11.20;77.40;;;;;;5051468;28;20677;-67
2023/04/05 14:58:37;;;;;;;5.35;3.40;;;;;;;;;;5051502;28;20056;-65
2023/04/05 15:01:43;;;;;;;5.55;3.28;;;;;;;;;;5051219;28;20037;-66
2023/04/05 15:04:47;;;;;;;5.47;3.00;;;11.00;78.00;;;;;;5051285;28;20492;-66
2023/04/05 15:07:51;;;;;;;6.20;3.15;;;;;;;;;;5051340;28;20392;-67
2023/04/05 15:10:55;;;;;;;8.40;3.10;;;11.60;79.20;;;;;;5050254;28;20041;-65
2023/04/05 15:14:00;;;;;;;6.00;2.95;;;;;;;;;;5050089;28;20056;-66
2023/04/05 15:17:05;;;;;;;8.70;3.80;;;10.90;79.30;;;;;;5050414;28;20037;-65
2023/04/05 15:20:10;;;;;;;6.70;2.90;;;11.00;79.10;;;;;;5051487;28;20048;-69
2023/04/05 15:23:15;;;;;;;9.10;2.90;;;11.00;78.80;;;;;;5051364;28;20047;-64
2023/04/05 15:26:20;;;;;;;6.25;3.35;;;11.00;79.70;;;;;;5050610;28;20039;-65
2023/04/05 15:29:25;;;;;;;6.93;3.20;;;10.90;79.90;;;;;;5051484;28;20527;-68
2023/04/05 15:32:32;;;;;;;7.35;3.65;;;10.80;80.50;;;;;;5050450;28;20043;-68
2023/04/05 15:35:36;;;;;;;7.07;4.00;;;10.70;80.90;;;;;;5050500;28;20047;-67
2023/04/05 15:38:40;;;;;;;7.53;3.47;;;11.00;79.60;;;;;;5051228;28;20503;-67
2023/04/05 15:41:45;;;;;;;10.60;3.72;;;11.40;79.40;;;;;;5049779;28;20040;-68
2023/04/05 15:44:49;;;;;;;7.90;4.55;;;10.80;80.40;;;;;;5051172;28;20048;-66
2023/04/05 15:47:54;;;;;;;8.40;4.55;;;10.60;80.30;;;;;;5050804;28;20056;-69
2023/04/05 15:50:58;;;;;;;8.95;4.90;;;10.40;81.30;;;;;;5050575;28;20044;-66
2023/04/05 15:54:02;;;;;;;10.90;4.78;;;10.70;80.90;;;;;;5050409;28;20052;-67
2023/04/05 15:57:07;;;;;;;5.47;4.25;;;;;;;;;;5050638;28;20512;-67
2023/04/05 16:00:11;;;;;;;11.43;4.35;;;;;;;;;;5050756;28;20045;-65
2023/04/05 16:03:15;;;;;;;10.35;4.80;;;10.40;82.60;;;;;;5050836;28;20048;-68
2023/04/05 16:06:23;;;;;;;7.72;4.47;;;10.10;83.10;;;;;;5049610;28;20040;-67
2023/04/05 16:09:28;;;;;;;6.18;4.88;;;11.10;84.90;;;;;;5050016;28;20088;-67
2023/04/05 16:12:33;;;;;;;7.28;5.25;;;10.00;84.20;;;;;;5050429;28;20048;-68
2023/04/05 16:15:37;;;;;;;7.68;4.15;;;9.90;84.00;;;;;;5050188;28;20056;-67
2023/04/05 16:18:41;;;;;;;6.82;3.83;;;10.20;83.90;;;;;;5038527;28;20041;-70
2023/04/05 16:21:45;;;;;;;5.40;4.05;;;9.10;83.00;;;;;;5049963;28;20452;-66
2023/04/05 16:24:49;;;;;;;10.50;5.03;;;8.60;84.10;;;;;;5050090;28;20135;-70
2023/04/05 16:27:53;;;;;;;12.65;4.93;;;9.70;83.70;;;;;;5050421;28;20052;-65
2023/04/05 16:30:58;;;;;;;6.97;4.28;;;11.00;83.10;;;;;;5050374;28;20496;-68
2023/04/05 16:34:02;;;;;;;9.10;4.28;;;10.00;83.00;;;;;;5049097;28;20048;-67
2023/04/05 16:37:06;;;;;;;10.57;4.38;;;9.30;83.40;;;;;;5050051;28;20397;-68
2023/04/05 16:40:11;;;;;;;6.95;4.55;;;9.80;83.70;;;;;;5050359;28;20056;-65